Portada
METAR-TAF:

METAR-TAF

Aeroports :

Port Sudan, Sudan

latitud: 19-26N, longitud: 037-14E, altitud: 138 m

Observació

L'informe es va fer fa 1 hora i 14 minuts, a les 10:00 UTC
Vent 11 kt del Est
Temperatura 35°C
Humitat 56%
Pressió 1008 hPa
Visibilitat 10 km o més
Núvols disperses a una alçada de 3000 ft

METAR: HSPN 231000Z 08011KT 9999 SCT030 35/25 Q1008

Hora: 14:14 (11:14 UTC)

Pronòstic

L'informe es va fer fa 6 hores i 14 minuts, a les 05:00 UTC
Pronòstic vàlid del 23 a les 06 UTC al 24 a les 12 UTC
Vent 6 kt del Oest
Visibilitat 10 km o més
Escasses núvols a una alçada de 3000 ft
Núvols disperses a una alçada de 13000 ft

TAF: HSPN 230500Z 2306/2412 27006KT 9999 FEW030 SCT130

Observacions i pronòstics meteorològics de més de 4000 aeroports (METAR i TAF).

Les estacions disponibles són els punts grocs i vermells al mapa.

Posi el ratolí al punt desitjat per veure el nom de l'estació.

Feu clic per veure les observacions i els pronòstics meteorològics.

Per canviar el mapa: feu clic els botons verds amb una creu de color negre per apropar; al botó verd amb un guió per allunyar la imatge; o en les fletxes verdes per a mapes adjacents.


METAR-TAF: